sensor_id;sensor_type;location;lat;lon;timestamp;P1;durP1;ratioP1;P2;durP2;ratioP2
21593;SDS011;10959;51.328;7.322;2022-11-23T00:02:13;4.97;;;1.50;;
21593;SDS011;10959;51.328;7.322;2022-11-23T00:04:41;6.23;;;1.87;;
21593;SDS011;10959;51.328;7.322;2022-11-23T00:07:08;6.03;;;1.53;;
21593;SDS011;10959;51.328;7.322;2022-11-23T00:09:34;8.57;;;2.13;;
21593;SDS011;10959;51.328;7.322;2022-11-23T00:12:01;3.83;;;1.57;;
21593;SDS011;10959;51.328;7.322;2022-11-23T00:14:27;4.80;;;1.80;;
21593;SDS011;10959;51.328;7.322;2022-11-23T00:16:54;6.77;;;1.67;;
21593;SDS011;10959;51.328;7.322;2022-11-23T00:19:20;3.47;;;1.47;;
21593;SDS011;10959;51.328;7.322;2022-11-23T00:21:48;4.63;;;1.50;;
21593;SDS011;10959;51.328;7.322;2022-11-23T00:24:15;4.87;;;1.83;;
21593;SDS011;10959;51.328;7.322;2022-11-23T00:26:41;6.17;;;1.60;;
21593;SDS011;10959;51.328;7.322;2022-11-23T00:29:08;3.83;;;1.50;;
21593;SDS011;10959;51.328;7.322;2022-11-23T00:31:34;3.93;;;1.60;;
21593;SDS011;10959;51.328;7.322;2022-11-23T00:34:01;3.47;;;1.53;;
21593;SDS011;10959;51.328;7.322;2022-11-23T00:36:27;4.67;;;1.17;;
21593;SDS011;10959;51.328;7.322;2022-11-23T00:38:55;5.20;;;1.70;;
21593;SDS011;10959;51.328;7.322;2022-11-23T00:41:24;4.93;;;1.40;;
21593;SDS011;10959;51.328;7.322;2022-11-23T00:43:51;5.13;;;1.80;;
21593;SDS011;10959;51.328;7.322;2022-11-23T00:46:18;3.17;;;1.50;;
21593;SDS011;10959;51.328;7.322;2022-11-23T00:48:47;4.10;;;1.20;;
21593;SDS011;10959;51.328;7.322;2022-11-23T00:51:15;3.87;;;1.30;;
21593;SDS011;10959;51.328;7.322;2022-11-23T00:53:43;6.57;;;1.50;;
21593;SDS011;10959;51.328;7.322;2022-11-23T00:56:11;6.80;;;1.93;;
21593;SDS011;10959;51.328;7.322;2022-11-23T00:58:38;4.60;;;1.20;;
21593;SDS011;10959;51.328;7.322;2022-11-23T01:01:06;3.10;;;1.40;;
21593;SDS011;10959;51.328;7.322;2022-11-23T01:03:34;2.80;;;1.17;;
21593;SDS011;10959;51.328;7.322;2022-11-23T01:06:02;4.83;;;1.60;;
21593;SDS011;10959;51.328;7.322;2022-11-23T01:08:30;3.57;;;1.30;;
21593;SDS011;10959;51.328;7.322;2022-11-23T01:10:58;3.10;;;1.20;;
21593;SDS011;10959;51.328;7.322;2022-11-23T01:13:27;3.97;;;1.30;;
21593;SDS011;10959;51.328;7.322;2022-11-23T01:15:54;4.23;;;1.40;;
21593;SDS011;10959;51.328;7.322;2022-11-23T01:18:21;3.87;;;1.30;;
21593;SDS011;10959;51.328;7.322;2022-11-23T01:20:47;5.33;;;1.47;;
21593;SDS011;10959;51.328;7.322;2022-11-23T01:23:14;5.23;;;1.23;;
21593;SDS011;10959;51.328;7.322;2022-11-23T01:25:40;2.70;;;1.30;;
21593;SDS011;10959;51.328;7.322;2022-11-23T01:28:07;3.87;;;1.60;;
21593;SDS011;10959;51.328;7.322;2022-11-23T01:30:35;4.13;;;1.33;;
21593;SDS011;10959;51.328;7.322;2022-11-23T01:33:02;5.47;;;1.50;;
21593;SDS011;10959;51.328;7.322;2022-11-23T01:35:29;2.57;;;1.23;;
21593;SDS011;10959;51.328;7.322;2022-11-23T01:37:56;3.87;;;1.60;;
21593;SDS011;10959;51.328;7.322;2022-11-23T01:40:22;2.97;;;1.30;;
21593;SDS011;10959;51.328;7.322;2022-11-23T01:42:51;2.87;;;1.30;;
21593;SDS011;10959;51.328;7.322;2022-11-23T01:45:38;2.90;;;1.00;;
21593;SDS011;10959;51.328;7.322;2022-11-23T01:48:08;5.47;;;1.60;;
21593;SDS011;10959;51.328;7.322;2022-11-23T01:50:39;3.33;;;1.30;;
21593;SDS011;10959;51.328;7.322;2022-11-23T01:53:07;5.77;;;1.50;;
21593;SDS011;10959;51.328;7.322;2022-11-23T01:55:34;4.57;;;1.23;;
21593;SDS011;10959;51.328;7.322;2022-11-23T01:58:01;5.67;;;1.50;;
21593;SDS011;10959;51.328;7.322;2022-11-23T02:00:29;3.03;;;1.60;;
21593;SDS011;10959;51.328;7.322;2022-11-23T02:02:58;4.60;;;1.10;;
21593;SDS011;10959;51.328;7.322;2022-11-23T02:05:27;3.83;;;1.50;;
21593;SDS011;10959;51.328;7.322;2022-11-23T02:07:58;5.00;;;1.50;;
21593;SDS011;10959;51.328;7.322;2022-11-23T02:10:26;4.73;;;1.13;;
21593;SDS011;10959;51.328;7.322;2022-11-23T02:12:55;3.37;;;0.80;;
21593;SDS011;10959;51.328;7.322;2022-11-23T02:15:25;3.97;;;1.47;;
21593;SDS011;10959;51.328;7.322;2022-11-23T02:17:51;5.43;;;1.20;;
21593;SDS011;10959;51.328;7.322;2022-11-23T02:20:19;2.53;;;1.43;;
21593;SDS011;10959;51.328;7.322;2022-11-23T02:22:49;2.93;;;1.17;;
21593;SDS011;10959;51.328;7.322;2022-11-23T02:25:24;3.83;;;1.33;;
21593;SDS011;10959;51.328;7.322;2022-11-23T02:27:59;1.47;;;0.90;;
21593;SDS011;10959;51.328;7.322;2022-11-23T02:30:26;2.13;;;0.77;;
21593;SDS011;10959;51.328;7.322;2022-11-23T02:32:54;4.37;;;1.50;;
21593;SDS011;10959;51.328;7.322;2022-11-23T02:35:21;3.67;;;1.20;;
21593;SDS011;10959;51.328;7.322;2022-11-23T02:37:48;5.00;;;1.13;;
21593;SDS011;10959;51.328;7.322;2022-11-23T02:40:19;2.93;;;1.10;;
21593;SDS011;10959;51.328;7.322;2022-11-23T02:42:51;2.73;;;1.03;;
21593;SDS011;10959;51.328;7.322;2022-11-23T02:45:20;2.93;;;0.90;;
21593;SDS011;10959;51.328;7.322;2022-11-23T02:47:52;4.97;;;1.30;;
21593;SDS011;10959;51.328;7.322;2022-11-23T02:50:19;3.50;;;1.13;;
21593;SDS011;10959;51.328;7.322;2022-11-23T02:52:46;3.73;;;1.20;;
21593;SDS011;10959;51.328;7.322;2022-11-23T02:55:13;2.80;;;0.97;;
21593;SDS011;10959;51.328;7.322;2022-11-23T02:57:39;4.33;;;1.37;;
21593;SDS011;10959;51.328;7.322;2022-11-23T03:00:06;3.70;;;1.40;;
21593;SDS011;10959;51.328;7.322;2022-11-23T03:02:35;3.77;;;1.20;;
21593;SDS011;10959;51.328;7.322;2022-11-23T03:05:01;3.30;;;1.03;;
21593;SDS011;10959;51.328;7.322;2022-11-23T03:07:29;3.80;;;1.23;;
21593;SDS011;10959;51.328;7.322;2022-11-23T03:09:56;2.47;;;1.10;;
21593;SDS011;10959;51.328;7.322;2022-11-23T03:12:22;6.17;;;1.07;;
21593;SDS011;10959;51.328;7.322;2022-11-23T03:14:49;3.90;;;1.20;;
21593;SDS011;10959;51.328;7.322;2022-11-23T03:17:15;3.93;;;1.60;;
21593;SDS011;10959;51.328;7.322;2022-11-23T03:19:43;2.10;;;1.10;;
21593;SDS011;10959;51.328;7.322;2022-11-23T03:22:09;4.60;;;1.20;;
21593;SDS011;10959;51.328;7.322;2022-11-23T03:24:36;3.47;;;1.10;;
21593;SDS011;10959;51.328;7.322;2022-11-23T03:27:02;4.33;;;1.30;;
21593;SDS011;10959;51.328;7.322;2022-11-23T03:29:29;7.00;;;1.73;;
21593;SDS011;10959;51.328;7.322;2022-11-23T03:31:55;2.97;;;1.17;;
21593;SDS011;10959;51.328;7.322;2022-11-23T03:34:22;3.40;;;1.43;;
21593;SDS011;10959;51.328;7.322;2022-11-23T03:36:50;5.77;;;1.33;;
21593;SDS011;10959;51.328;7.322;2022-11-23T03:39:17;3.43;;;1.20;;
21593;SDS011;10959;51.328;7.322;2022-11-23T03:41:43;3.20;;;1.30;;
21593;SDS011;10959;51.328;7.322;2022-11-23T03:44:10;3.43;;;1.33;;
21593;SDS011;10959;51.328;7.322;2022-11-23T03:46:36;2.23;;;1.00;;
21593;SDS011;10959;51.328;7.322;2022-11-23T03:49:03;2.70;;;1.20;;
21593;SDS011;10959;51.328;7.322;2022-11-23T03:51:30;3.40;;;1.10;;
21593;SDS011;10959;51.328;7.322;2022-11-23T03:53:58;3.37;;;1.20;;
21593;SDS011;10959;51.328;7.322;2022-11-23T03:56:24;3.43;;;1.33;;
21593;SDS011;10959;51.328;7.322;2022-11-23T03:58:50;5.23;;;1.23;;
21593;SDS011;10959;51.328;7.322;2022-11-23T04:01:17;3.20;;;1.17;;
21593;SDS011;10959;51.328;7.322;2022-11-23T04:03:43;5.33;;;1.40;;
21593;SDS011;10959;51.328;7.322;2022-11-23T04:06:10;3.03;;;1.00;;
21593;SDS011;10959;51.328;7.322;2022-11-23T04:08:37;6.07;;;1.20;;
21593;SDS011;10959;51.328;7.322;2022-11-23T04:11:05;3.47;;;1.23;;
21593;SDS011;10959;51.328;7.322;2022-11-23T04:13:31;3.00;;;0.90;;
21593;SDS011;10959;51.328;7.322;2022-11-23T04:15:58;3.13;;;1.30;;
21593;SDS011;10959;51.328;7.322;2022-11-23T04:18:24;1.83;;;0.97;;
21593;SDS011;10959;51.328;7.322;2022-11-23T04:20:51;2.20;;;1.10;;
21593;SDS011;10959;51.328;7.322;2022-11-23T04:23:17;4.07;;;1.20;;
21593;SDS011;10959;51.328;7.322;2022-11-23T04:25:44;2.03;;;1.00;;
21593;SDS011;10959;51.328;7.322;2022-11-23T04:28:12;2.63;;;1.33;;
21593;SDS011;10959;51.328;7.322;2022-11-23T04:30:38;6.93;;;1.60;;
21593;SDS011;10959;51.328;7.322;2022-11-23T04:33:05;2.67;;;1.17;;
21593;SDS011;10959;51.328;7.322;2022-11-23T04:35:32;1.97;;;0.80;;
21593;SDS011;10959;51.328;7.322;2022-11-23T04:37:59;3.50;;;1.40;;
21593;SDS011;10959;51.328;7.322;2022-11-23T04:40:26;2.93;;;1.37;;
21593;SDS011;10959;51.328;7.322;2022-11-23T04:42:53;3.47;;;1.50;;
21593;SDS011;10959;51.328;7.322;2022-11-23T04:45:20;5.00;;;1.40;;
21593;SDS011;10959;51.328;7.322;2022-11-23T04:47:47;4.47;;;0.93;;
21593;SDS011;10959;51.328;7.322;2022-11-23T04:50:14;3.57;;;1.20;;
21593;SDS011;10959;51.328;7.322;2022-11-23T04:52:41;4.50;;;1.30;;
21593;SDS011;10959;51.328;7.322;2022-11-23T04:55:07;3.17;;;1.23;;
21593;SDS011;10959;51.328;7.322;2022-11-23T04:57:34;3.40;;;1.30;;
21593;SDS011;10959;51.328;7.322;2022-11-23T05:00:00;4.27;;;1.43;;
21593;SDS011;10959;51.328;7.322;2022-11-23T05:02:30;5.50;;;1.57;;
21593;SDS011;10959;51.328;7.322;2022-11-23T05:04:57;5.63;;;1.43;;
21593;SDS011;10959;51.328;7.322;2022-11-23T05:07:23;4.23;;;1.20;;
21593;SDS011;10959;51.328;7.322;2022-11-23T05:09:50;4.60;;;1.70;;
21593;SDS011;10959;51.328;7.322;2022-11-23T05:12:16;5.73;;;1.60;;
21593;SDS011;10959;51.328;7.322;2022-11-23T05:14:43;4.60;;;1.50;;
21593;SDS011;10959;51.328;7.322;2022-11-23T05:17:10;3.33;;;1.80;;
21593;SDS011;10959;51.328;7.322;2022-11-23T05:19:38;4.90;;;1.33;;
21593;SDS011;10959;51.328;7.322;2022-11-23T05:22:04;5.83;;;1.60;;
21593;SDS011;10959;51.328;7.322;2022-11-23T05:24:31;7.07;;;1.20;;
21593;SDS011;10959;51.328;7.322;2022-11-23T05:26:57;3.37;;;1.50;;
21593;SDS011;10959;51.328;7.322;2022-11-23T05:29:23;3.63;;;1.50;;
21593;SDS011;10959;51.328;7.322;2022-11-23T05:31:50;3.57;;;1.37;;
21593;SDS011;10959;51.328;7.322;2022-11-23T05:34:16;4.17;;;1.30;;
21593;SDS011;10959;51.328;7.322;2022-11-23T05:36:44;2.83;;;1.43;;
21593;SDS011;10959;51.328;7.322;2022-11-23T05:39:12;4.83;;;1.53;;
21593;SDS011;10959;51.328;7.322;2022-11-23T05:41:38;3.83;;;1.60;;
21593;SDS011;10959;51.328;7.322;2022-11-23T05:44:05;2.53;;;0.90;;
21593;SDS011;10959;51.328;7.322;2022-11-23T05:46:31;6.27;;;1.47;;
21593;SDS011;10959;51.328;7.322;2022-11-23T05:48:57;4.90;;;1.63;;
21593;SDS011;10959;51.328;7.322;2022-11-23T05:51:24;4.27;;;1.50;;
21593;SDS011;10959;51.328;7.322;2022-11-23T05:53:52;4.27;;;1.83;;
21593;SDS011;10959;51.328;7.322;2022-11-23T05:56:21;3.77;;;1.50;;
21593;SDS011;10959;51.328;7.322;2022-11-23T05:58:49;5.30;;;1.37;;
21593;SDS011;10959;51.328;7.322;2022-11-23T06:01:18;3.23;;;1.43;;
21593;SDS011;10959;51.328;7.322;2022-11-23T06:03:48;3.77;;;1.17;;
21593;SDS011;10959;51.328;7.322;2022-11-23T06:06:15;4.73;;;1.37;;
21593;SDS011;10959;51.328;7.322;2022-11-23T06:08:42;4.47;;;1.70;;
21593;SDS011;10959;51.328;7.322;2022-11-23T06:11:15;3.97;;;1.60;;
21593;SDS011;10959;51.328;7.322;2022-11-23T06:13:45;3.60;;;1.40;;
21593;SDS011;10959;51.328;7.322;2022-11-23T06:16:12;6.73;;;1.50;;
21593;SDS011;10959;51.328;7.322;2022-11-23T06:18:38;3.77;;;1.60;;
21593;SDS011;10959;51.328;7.322;2022-11-23T06:21:05;2.73;;;1.40;;
21593;SDS011;10959;51.328;7.322;2022-11-23T06:23:32;4.70;;;1.93;;
21593;SDS011;10959;51.328;7.322;2022-11-23T06:26:00;2.83;;;1.13;;
21593;SDS011;10959;51.328;7.322;2022-11-23T06:28:29;5.00;;;1.73;;
21593;SDS011;10959;51.328;7.322;2022-11-23T06:30:59;5.57;;;1.40;;
21593;SDS011;10959;51.328;7.322;2022-11-23T06:33:27;3.00;;;1.57;;
21593;SDS011;10959;51.328;7.322;2022-11-23T06:35:53;4.40;;;1.37;;
21593;SDS011;10959;51.328;7.322;2022-11-23T06:38:20;7.20;;;1.77;;
21593;SDS011;10959;51.328;7.322;2022-11-23T06:40:47;6.33;;;1.73;;
21593;SDS011;10959;51.328;7.322;2022-11-23T06:43:13;3.67;;;1.30;;
21593;SDS011;10959;51.328;7.322;2022-11-23T06:45:41;4.37;;;1.57;;
21593;SDS011;10959;51.328;7.322;2022-11-23T06:48:07;5.77;;;2.03;;
21593;SDS011;10959;51.328;7.322;2022-11-23T06:50:34;5.03;;;1.33;;
21593;SDS011;10959;51.328;7.322;2022-11-23T06:53:01;2.80;;;1.30;;
21593;SDS011;10959;51.328;7.322;2022-11-23T06:55:27;3.60;;;1.63;;
21593;SDS011;10959;51.328;7.322;2022-11-23T06:57:55;3.83;;;1.20;;
21593;SDS011;10959;51.328;7.322;2022-11-23T07:00:22;6.80;;;1.50;;
21593;SDS011;10959;51.328;7.322;2022-11-23T07:02:53;6.23;;;1.60;;
21593;SDS011;10959;51.328;7.322;2022-11-23T07:05:20;3.37;;;1.80;;
21593;SDS011;10959;51.328;7.322;2022-11-23T07:07:47;4.10;;;1.47;;
21593;SDS011;10959;51.328;7.322;2022-11-23T07:10:14;4.97;;;1.60;;
21593;SDS011;10959;51.328;7.322;2022-11-23T07:12:40;4.80;;;1.53;;
21593;SDS011;10959;51.328;7.322;2022-11-23T07:15:07;7.80;;;1.53;;
21593;SDS011;10959;51.328;7.322;2022-11-23T07:17:37;4.03;;;1.80;;
21593;SDS011;10959;51.328;7.322;2022-11-23T07:20:06;4.37;;;1.60;;
21593;SDS011;10959;51.328;7.322;2022-11-23T07:22:34;5.67;;;1.53;;
21593;SDS011;10959;51.328;7.322;2022-11-23T07:25:00;5.00;;;1.40;;
21593;SDS011;10959;51.328;7.322;2022-11-23T07:27:27;4.43;;;1.80;;
21593;SDS011;10959;51.328;7.322;2022-11-23T07:29:53;4.70;;;1.30;;
21593;SDS011;10959;51.328;7.322;2022-11-23T07:32:20;3.93;;;1.63;;
21593;SDS011;10959;51.328;7.322;2022-11-23T07:34:46;3.20;;;1.53;;
21593;SDS011;10959;51.328;7.322;2022-11-23T07:37:14;3.53;;;1.60;;
21593;SDS011;10959;51.328;7.322;2022-11-23T07:39:40;4.00;;;1.70;;
21593;SDS011;10959;51.328;7.322;2022-11-23T07:42:07;5.80;;;1.80;;
21593;SDS011;10959;51.328;7.322;2022-11-23T07:44:33;5.60;;;1.97;;
21593;SDS011;10959;51.328;7.322;2022-11-23T07:47:00;7.17;;;2.40;;
21593;SDS011;10959;51.328;7.322;2022-11-23T07:49:26;5.20;;;2.70;;
21593;SDS011;10959;51.328;7.322;2022-11-23T07:51:53;4.33;;;2.10;;
21593;SDS011;10959;51.328;7.322;2022-11-23T07:54:21;7.83;;;1.97;;
21593;SDS011;10959;51.328;7.322;2022-11-23T07:56:47;5.93;;;2.30;;
21593;SDS011;10959;51.328;7.322;2022-11-23T07:59:14;5.23;;;2.17;;
21593;SDS011;10959;51.328;7.322;2022-11-23T08:01:40;4.30;;;1.70;;
21593;SDS011;10959;51.328;7.322;2022-11-23T08:04:07;4.13;;;1.60;;
21593;SDS011;10959;51.328;7.322;2022-11-23T08:06:33;5.80;;;2.03;;
21593;SDS011;10959;51.328;7.322;2022-11-23T08:09:00;4.50;;;1.87;;
21593;SDS011;10959;51.328;7.322;2022-11-23T08:11:28;4.37;;;1.80;;
21593;SDS011;10959;51.328;7.322;2022-11-23T08:13:54;6.97;;;1.93;;
21593;SDS011;10959;51.328;7.322;2022-11-23T08:16:21;5.43;;;1.67;;
21593;SDS011;10959;51.328;7.322;2022-11-23T08:18:47;5.07;;;1.80;;
21593;SDS011;10959;51.328;7.322;2022-11-23T08:21:15;6.47;;;1.80;;
21593;SDS011;10959;51.328;7.322;2022-11-23T08:23:42;8.53;;;2.13;;
21593;SDS011;10959;51.328;7.322;2022-11-23T08:26:08;6.63;;;1.60;;
21593;SDS011;10959;51.328;7.322;2022-11-23T08:28:36;5.50;;;1.70;;
21593;SDS011;10959;51.328;7.322;2022-11-23T08:31:04;4.90;;;1.37;;
21593;SDS011;10959;51.328;7.322;2022-11-23T08:33:32;5.70;;;1.53;;
21593;SDS011;10959;51.328;7.322;2022-11-23T08:36:01;5.27;;;1.70;;
21593;SDS011;10959;51.328;7.322;2022-11-23T08:38:29;5.30;;;1.60;;
21593;SDS011;10959;51.328;7.322;2022-11-23T08:40:56;6.57;;;2.00;;
21593;SDS011;10959;51.328;7.322;2022-11-23T08:43:23;4.97;;;1.50;;
21593;SDS011;10959;51.328;7.322;2022-11-23T08:45:53;5.57;;;1.83;;
21593;SDS011;10959;51.328;7.322;2022-11-23T08:48:20;7.43;;;2.00;;
21593;SDS011;10959;51.328;7.322;2022-11-23T08:50:46;3.63;;;1.27;;
21593;SDS011;10959;51.328;7.322;2022-11-23T08:53:13;3.10;;;1.20;;
21593;SDS011;10959;51.328;7.322;2022-11-23T08:55:40;8.50;;;1.80;;
21593;SDS011;10959;51.328;7.322;2022-11-23T08:58:06;7.27;;;1.83;;
21593;SDS011;10959;51.328;7.322;2022-11-23T09:00:33;3.90;;;1.27;;
21593;SDS011;10959;51.328;7.322;2022-11-23T09:03:02;5.03;;;1.73;;
21593;SDS011;10959;51.328;7.322;2022-11-23T09:05:29;4.30;;;1.80;;
21593;SDS011;10959;51.328;7.322;2022-11-23T09:07:58;6.80;;;2.03;;
21593;SDS011;10959;51.328;7.322;2022-11-23T09:10:25;5.33;;;1.70;;
21593;SDS011;10959;51.328;7.322;2022-11-23T09:12:51;5.03;;;2.30;;
21593;SDS011;10959;51.328;7.322;2022-11-23T09:15:18;6.13;;;1.83;;
21593;SDS011;10959;51.328;7.322;2022-11-23T09:17:45;5.63;;;1.90;;
21593;SDS011;10959;51.328;7.322;2022-11-23T09:20:13;8.73;;;1.77;;
21593;SDS011;10959;51.328;7.322;2022-11-23T09:22:40;6.67;;;2.00;;
21593;SDS011;10959;51.328;7.322;2022-11-23T09:25:07;7.63;;;1.90;;
21593;SDS011;10959;51.328;7.322;2022-11-23T09:27:34;6.77;;;1.83;;
21593;SDS011;10959;51.328;7.322;2022-11-23T09:30:01;4.90;;;2.27;;
21593;SDS011;10959;51.328;7.322;2022-11-23T09:32:28;5.50;;;1.90;;
21593;SDS011;10959;51.328;7.322;2022-11-23T09:34:57;3.40;;;1.77;;
21593;SDS011;10959;51.328;7.322;2022-11-23T09:37:24;7.87;;;2.20;;
21593;SDS011;10959;51.328;7.322;2022-11-23T09:39:51;10.20;;;2.20;;
21593;SDS011;10959;51.328;7.322;2022-11-23T09:42:30;5.57;;;1.87;;
21593;SDS011;10959;51.328;7.322;2022-11-23T09:45:10;4.97;;;1.83;;
21593;SDS011;10959;51.328;7.322;2022-11-23T09:47:48;8.47;;;2.13;;
21593;SDS011;10959;51.328;7.322;2022-11-23T09:50:33;4.37;;;1.80;;
21593;SDS011;10959;51.328;7.322;2022-11-23T09:53:12;7.50;;;2.20;;
21593;SDS011;10959;51.328;7.322;2022-11-23T09:55:44;6.23;;;2.17;;
21593;SDS011;10959;51.328;7.322;2022-11-23T09:58:14;8.37;;;2.10;;
21593;SDS011;10959;51.328;7.322;2022-11-23T10:00:45;7.80;;;1.93;;
21593;SDS011;10959;51.328;7.322;2022-11-23T10:03:14;6.90;;;1.60;;
21593;SDS011;10959;51.328;7.322;2022-11-23T10:05:43;7.17;;;1.97;;
21593;SDS011;10959;51.328;7.322;2022-11-23T10:08:20;9.57;;;2.27;;
21593;SDS011;10959;51.328;7.322;2022-11-23T10:10:57;10.33;;;2.40;;
21593;SDS011;10959;51.328;7.322;2022-11-23T10:13:33;9.63;;;2.40;;
21593;SDS011;10959;51.328;7.322;2022-11-23T10:16:16;9.20;;;2.33;;
21593;SDS011;10959;51.328;7.322;2022-11-23T10:18:53;7.57;;;2.30;;
21593;SDS011;10959;51.328;7.322;2022-11-23T10:21:28;6.83;;;2.40;;
21593;SDS011;10959;51.328;7.322;2022-11-23T10:24:08;8.80;;;2.40;;
21593;SDS011;10959;51.328;7.322;2022-11-23T10:26:43;9.67;;;2.37;;
21593;SDS011;10959;51.328;7.322;2022-11-23T10:29:12;6.03;;;2.20;;
21593;SDS011;10959;51.328;7.322;2022-11-23T10:31:41;8.40;;;2.03;;
21593;SDS011;10959;51.328;7.322;2022-11-23T10:34:12;8.67;;;2.47;;
21593;SDS011;10959;51.328;7.322;2022-11-23T10:36:41;5.93;;;2.30;;
21593;SDS011;10959;51.328;7.322;2022-11-23T10:41:56;5.43;;;2.07;;
21593;SDS011;10959;51.328;7.322;2022-11-23T10:44:28;6.57;;;2.03;;
21593;SDS011;10959;51.328;7.322;2022-11-23T10:46:56;5.70;;;1.90;;
21593;SDS011;10959;51.328;7.322;2022-11-23T10:49:23;7.70;;;2.40;;
21593;SDS011;10959;51.328;7.322;2022-11-23T10:51:52;5.37;;;2.10;;
21593;SDS011;10959;51.328;7.322;2022-11-23T10:54:21;7.37;;;2.10;;
21593;SDS011;10959;51.328;7.322;2022-11-23T10:56:53;7.97;;;1.93;;
21593;SDS011;10959;51.328;7.322;2022-11-23T10:59:31;5.47;;;1.80;;
21593;SDS011;10959;51.328;7.322;2022-11-23T11:02:08;4.83;;;1.63;;
21593;SDS011;10959;51.328;7.322;2022-11-23T11:04:39;4.00;;;1.70;;
21593;SDS011;10959;51.328;7.322;2022-11-23T11:07:09;5.17;;;1.67;;
21593;SDS011;10959;51.328;7.322;2022-11-23T11:09:47;5.10;;;1.70;;
21593;SDS011;10959;51.328;7.322;2022-11-23T11:12:16;5.20;;;1.77;;
21593;SDS011;10959;51.328;7.322;2022-11-23T11:14:53;4.47;;;1.60;;
21593;SDS011;10959;51.328;7.322;2022-11-23T11:17:27;11.27;;;2.67;;
21593;SDS011;10959;51.328;7.322;2022-11-23T11:19:54;7.73;;;1.93;;
21593;SDS011;10959;51.328;7.322;2022-11-23T11:22:24;7.93;;;2.07;;
21593;SDS011;10959;51.328;7.322;2022-11-23T11:24:54;6.10;;;2.07;;
21593;SDS011;10959;51.328;7.322;2022-11-23T11:27:22;8.73;;;2.20;;
21593;SDS011;10959;51.328;7.322;2022-11-23T11:29:52;7.27;;;2.40;;
21593;SDS011;10959;51.328;7.322;2022-11-23T11:32:22;6.27;;;1.90;;
21593;SDS011;10959;51.328;7.322;2022-11-23T11:34:52;6.10;;;2.00;;
21593;SDS011;10959;51.328;7.322;2022-11-23T11:37:26;7.13;;;1.73;;
21593;SDS011;10959;51.328;7.322;2022-11-23T11:39:57;8.40;;;2.13;;
21593;SDS011;10959;51.328;7.322;2022-11-23T11:42:35;9.03;;;2.23;;
21593;SDS011;10959;51.328;7.322;2022-11-23T11:45:15;5.90;;;1.87;;
21593;SDS011;10959;51.328;7.322;2022-11-23T11:47:46;8.30;;;2.30;;
21593;SDS011;10959;51.328;7.322;2022-11-23T11:50:20;4.97;;;1.90;;
21593;SDS011;10959;51.328;7.322;2022-11-23T11:52:50;8.97;;;2.20;;
21593;SDS011;10959;51.328;7.322;2022-11-23T11:55:24;3.80;;;2.07;;
21593;SDS011;10959;51.328;7.322;2022-11-23T11:57:59;8.00;;;2.30;;
21593;SDS011;10959;51.328;7.322;2022-11-23T12:00:29;6.97;;;2.57;;
21593;SDS011;10959;51.328;7.322;2022-11-23T12:03:02;5.77;;;2.57;;
21593;SDS011;10959;51.328;7.322;2022-11-23T12:05:37;5.13;;;1.80;;
21593;SDS011;10959;51.328;7.322;2022-11-23T12:08:10;8.27;;;2.40;;
21593;SDS011;10959;51.328;7.322;2022-11-23T12:10:42;9.07;;;2.40;;
21593;SDS011;10959;51.328;7.322;2022-11-23T12:13:14;5.73;;;2.57;;
21593;SDS011;10959;51.328;7.322;2022-11-23T12:15:44;3.80;;;1.93;;
21593;SDS011;10959;51.328;7.322;2022-11-23T12:21:10;6.07;;;1.70;;
21593;SDS011;10959;51.328;7.322;2022-11-23T12:23:46;5.27;;;1.73;;
21593;SDS011;10959;51.328;7.322;2022-11-23T12:26:26;8.37;;;2.20;;
21593;SDS011;10959;51.328;7.322;2022-11-23T12:29:03;5.73;;;2.27;;
21593;SDS011;10959;51.328;7.322;2022-11-23T12:31:42;5.27;;;1.90;;
21593;SDS011;10959;51.328;7.322;2022-11-23T12:34:20;6.87;;;2.20;;
21593;SDS011;10959;51.328;7.322;2022-11-23T12:37:12;5.40;;;2.27;;
21593;SDS011;10959;51.328;7.322;2022-11-23T12:42:38;4.07;;;1.80;;
21593;SDS011;10959;51.328;7.322;2022-11-23T12:45:14;5.77;;;1.90;;
21593;SDS011;10959;51.328;7.322;2022-11-23T12:47:49;5.43;;;1.97;;
21593;SDS011;10959;51.328;7.322;2022-11-23T12:50:25;8.57;;;1.90;;
21593;SDS011;10959;51.328;7.322;2022-11-23T12:53:02;6.67;;;2.20;;
21593;SDS011;10959;51.328;7.322;2022-11-23T12:55:43;6.17;;;2.07;;
21593;SDS011;10959;51.328;7.322;2022-11-23T12:58:17;5.77;;;1.87;;
21593;SDS011;10959;51.328;7.322;2022-11-23T13:00:50;4.93;;;2.27;;
21593;SDS011;10959;51.328;7.322;2022-11-23T13:09:48;8.73;;;2.80;;
21593;SDS011;10959;51.328;7.322;2022-11-23T13:12:26;8.23;;;2.30;;
21593;SDS011;10959;51.328;7.322;2022-11-23T13:15:18;3.80;;;2.27;;
21593;SDS011;10959;51.328;7.322;2022-11-23T13:18:05;5.10;;;2.47;;
21593;SDS011;10959;51.328;7.322;2022-11-23T13:20:46;6.87;;;2.47;;
21593;SDS011;10959;51.328;7.322;2022-11-23T13:23:22;5.50;;;2.07;;
21593;SDS011;10959;51.328;7.322;2022-11-23T13:28:37;4.13;;;2.03;;
21593;SDS011;10959;51.328;7.322;2022-11-23T13:31:17;4.73;;;2.40;;
21593;SDS011;10959;51.328;7.322;2022-11-23T13:33:50;3.93;;;1.83;;
21593;SDS011;10959;51.328;7.322;2022-11-23T13:42:28;3.87;;;1.97;;
21593;SDS011;10959;51.328;7.322;2022-11-23T13:45:16;3.87;;;2.30;;
21593;SDS011;10959;51.328;7.322;2022-11-23T13:48:05;7.97;;;2.73;;
21593;SDS011;10959;51.328;7.322;2022-11-23T13:50:55;5.67;;;1.93;;
21593;SDS011;10959;51.328;7.322;2022-11-23T13:53:24;8.00;;;2.20;;
21593;SDS011;10959;51.328;7.322;2022-11-23T13:55:53;3.93;;;1.73;;
21593;SDS011;10959;51.328;7.322;2022-11-23T13:58:34;3.40;;;2.00;;
21593;SDS011;10959;51.328;7.322;2022-11-23T14:01:03;5.13;;;1.80;;
21593;SDS011;10959;51.328;7.322;2022-11-23T14:06:45;6.20;;;1.87;;
21593;SDS011;10959;51.328;7.322;2022-11-23T14:09:17;5.20;;;2.07;;
21593;SDS011;10959;51.328;7.322;2022-11-23T14:11:53;7.70;;;2.10;;
21593;SDS011;10959;51.328;7.322;2022-11-23T14:14:28;7.23;;;2.40;;
21593;SDS011;10959;51.328;7.322;2022-11-23T14:20:26;6.53;;;2.50;;
21593;SDS011;10959;51.328;7.322;2022-11-23T14:23:17;6.43;;;2.30;;
21593;SDS011;10959;51.328;7.322;2022-11-23T14:25:55;4.93;;;2.60;;
21593;SDS011;10959;51.328;7.322;2022-11-23T14:28:38;5.97;;;3.00;;
21593;SDS011;10959;51.328;7.322;2022-11-23T14:31:15;5.77;;;2.10;;
21593;SDS011;10959;51.328;7.322;2022-11-23T14:33:52;4.73;;;1.90;;
21593;SDS011;10959;51.328;7.322;2022-11-23T14:36:29;5.53;;;2.23;;
21593;SDS011;10959;51.328;7.322;2022-11-23T14:39:14;5.90;;;2.50;;
21593;SDS011;10959;51.328;7.322;2022-11-23T14:42:02;6.23;;;2.60;;
21593;SDS011;10959;51.328;7.322;2022-11-23T14:44:35;5.70;;;2.33;;
21593;SDS011;10959;51.328;7.322;2022-11-23T14:47:04;6.67;;;1.70;;
21593;SDS011;10959;51.328;7.322;2022-11-23T14:49:32;3.77;;;1.73;;
21593;SDS011;10959;51.328;7.322;2022-11-23T14:51:59;5.67;;;1.73;;
21593;SDS011;10959;51.328;7.322;2022-11-23T14:54:28;3.87;;;1.57;;
21593;SDS011;10959;51.328;7.322;2022-11-23T14:56:55;4.13;;;1.63;;
21593;SDS011;10959;51.328;7.322;2022-11-23T14:59:25;3.33;;;2.00;;
21593;SDS011;10959;51.328;7.322;2022-11-23T15:01:55;4.07;;;1.80;;
21593;SDS011;10959;51.328;7.322;2022-11-23T15:04:24;5.93;;;1.70;;
21593;SDS011;10959;51.328;7.322;2022-11-23T15:06:54;4.73;;;1.77;;
21593;SDS011;10959;51.328;7.322;2022-11-23T15:09:32;4.87;;;1.67;;
21593;SDS011;10959;51.328;7.322;2022-11-23T15:12:06;3.93;;;1.50;;
21593;SDS011;10959;51.328;7.322;2022-11-23T15:14:33;6.13;;;2.00;;
21593;SDS011;10959;51.328;7.322;2022-11-23T15:17:11;5.03;;;2.57;;
21593;SDS011;10959;51.328;7.322;2022-11-23T15:19:39;3.63;;;1.50;;
21593;SDS011;10959;51.328;7.322;2022-11-23T15:22:11;3.77;;;1.93;;
21593;SDS011;10959;51.328;7.322;2022-11-23T15:24:41;5.87;;;2.00;;
21593;SDS011;10959;51.328;7.322;2022-11-23T15:27:11;7.37;;;2.13;;
21593;SDS011;10959;51.328;7.322;2022-11-23T15:29:49;3.87;;;2.10;;
21593;SDS011;10959;51.328;7.322;2022-11-23T15:32:21;3.33;;;1.70;;
21593;SDS011;10959;51.328;7.322;2022-11-23T15:34:50;4.00;;;2.17;;